Time;durP1;ratioP1;P1;durP2;ratioP2;P2;SDS_P1;SDS_P2;PMS_P1;PMS_P2;Temp;Humidity;BMP_temperature;BMP_pressure;BME280_temperature;BME280_humidity;BME280_pressure;Samples;Min_cycle;Max_cycle;Signal;HPM_P1;HPM_P2
2022/05/29 00:03:22;;;;;;;8.02;1.27;;;6.80;99.90;;;;;;7371810;32;20511;-62
2022/05/29 00:07:24;;;;;;;5.60;1.30;;;6.80;99.90;;;;;;7365691;32;20115;-62
2022/05/29 00:11:25;;;;;;;5.95;1.73;;;6.80;99.90;;;;;;7362949;32;20123;-62
2022/05/29 00:15:28;;;;;;;5.07;1.08;;;6.80;99.90;;;;;;7352030;32;20318;-61
2022/05/29 00:19:30;;;;;;;3.70;1.50;;;6.80;99.90;;;;;;7352688;32;20190;-61
2022/05/29 00:23:36;;;;;;;3.78;1.35;;;6.70;99.90;;;;;;7343044;32;20588;-62
2022/05/29 00:27:39;;;;;;;5.75;1.58;;;6.80;99.90;;;;;;7344972;32;20586;-61
2022/05/29 00:31:40;;;;;;;6.15;1.95;;;6.70;99.90;;;;;;7364320;32;20185;-61
2022/05/29 00:35:42;;;;;;;8.00;1.30;;;6.60;99.90;;;;;;7373274;32;20570;-60
2022/05/29 00:39:46;;;;;;;6.45;1.30;;;6.70;99.90;;;;;;7341190;32;20217;-60
2022/05/29 00:44:10;;;;;;;5.72;1.37;;;6.60;99.90;;;;;;7357453;32;20182;-61
2022/05/29 00:48:17;;;;;;;5.60;1.37;;;6.60;99.90;;;;;;7334762;32;20102;-60
2022/05/29 00:52:21;;;;;;;;;;;6.50;99.90;;;;;;7352448;32;20557;-62
2022/05/29 00:56:23;;;;;;;2.37;1.30;;;6.40;99.90;;;;;;7369963;32;20006;-60
2022/05/29 01:00:27;;;;;;;6.97;1.75;;;6.30;99.90;;;;;;7366269;32;20099;-60
2022/05/29 01:04:34;;;;;;;6.53;1.50;;;6.30;99.90;;;;;;7352692;32;20107;-60
2022/05/29 01:08:37;;;;;;;3.58;1.27;;;6.20;99.90;;;;;;7356170;32;20178;-61
2022/05/29 01:13:07;;;;;;;2.75;1.10;;;6.10;99.90;;;;;;7345401;32;20135;-61
2022/05/29 01:17:17;;;;;;;2.00;1.08;;;6.10;99.90;;;;;;7358911;32;20096;-61
2022/05/29 01:21:36;;;;;;;11.48;1.48;;;6.10;99.90;;;;;;7346736;32;20111;-60
2022/05/29 01:26:13;;;;;;;3.17;1.30;;;6.00;99.90;;;;;;7347375;32;20759;-60
2022/05/29 01:30:19;;;;;;;4.85;1.30;;;5.90;99.90;;;;;;7357578;32;20099;-60
2022/05/29 01:34:39;;;;;;;2.15;1.15;;;5.80;99.90;;;;;;7359144;32;20303;-60
2022/05/29 01:38:47;;;;;;;4.25;1.27;;;5.80;99.90;;;;;;7363236;32;20670;-60
2022/05/29 01:42:51;;;;;;;6.65;1.60;;;5.70;99.90;;;;;;7363489;32;20226;-62
2022/05/29 01:46:59;;;;;;;3.90;1.35;;;5.70;99.90;;;;;;7350907;32;20182;-60
2022/05/29 01:51:24;;;;;;;3.28;1.08;;;5.60;99.90;;;;;;7356737;32;20099;-60
2022/05/29 01:55:33;;;;;;;4.50;1.10;;;5.60;99.90;;;;;;7357690;32;20123;-60
2022/05/29 01:59:43;;;;;;;3.78;1.40;;;5.60;99.90;;;;;;7357771;32;20508;-60
2022/05/29 02:03:50;;;;;;;3.78;1.48;;;5.50;99.90;;;;;;7366033;32;20140;-61
2022/05/29 02:07:59;;;;;;;2.65;1.30;;;5.50;99.90;;;;;;7360838;32;20131;-59
2022/05/29 02:12:03;;;;;;;3.33;1.40;;;5.50;99.90;;;;;;7360815;32;20352;-60
2022/05/29 02:16:08;;;;;;;5.70;1.23;;;5.40;99.90;;;;;;7360397;32;20126;-60
2022/05/29 02:20:22;;;;;;;3.42;1.10;;;5.40;99.90;;;;;;7367442;32;20494;-60
2022/05/29 02:24:37;;;;;;;2.55;1.15;;;5.40;99.90;;;;;;7335419;32;20130;-60
2022/05/29 02:28:44;;;;;;;3.28;1.40;;;5.30;99.90;;;;;;7354500;32;20148;-60
2022/05/29 02:33:03;;;;;;;3.92;1.35;;;5.20;99.90;;;;;;7349076;32;20099;-60
2022/05/29 02:37:33;;;;;;;4.32;1.40;;;5.20;99.90;;;;;;7362988;32;20115;-60
2022/05/29 02:41:53;;;;;;;3.22;1.23;;;5.20;99.90;;;;;;7358848;32;20103;-61
2022/05/29 02:46:08;;;;;;;6.72;1.80;;;5.10;99.90;;;;;;7370006;32;20545;-61
2022/05/29 02:50:12;;;;;;;4.60;1.85;;;5.20;99.90;;;;;;7366868;32;20133;-60
2022/05/29 02:54:27;;;;;;;3.00;1.25;;;5.20;99.90;;;;;;7365396;32;20096;-60
2022/05/29 02:58:31;;;;;;;5.87;1.50;;;5.20;99.90;;;;;;7363563;32;20229;-59
2022/05/29 03:02:45;;;;;;;4.03;1.42;;;5.20;99.90;;;;;;7359509;32;20190;-59
2022/05/29 03:06:53;;;;;;;5.60;1.20;;;5.10;99.90;;;;;;7356874;32;20285;-60
2022/05/29 03:11:21;;;;;;;5.25;1.50;;;5.10;99.90;;;;;;7347800;32;20223;-61
2022/05/29 03:15:47;;;;;;;2.50;1.23;;;5.00;99.90;;;;;;7364710;32;20237;-60
2022/05/29 03:20:19;;;;;;;3.00;1.48;;;5.00;99.90;;;;;;7366748;32;20248;-60
2022/05/29 03:24:50;;;;;;;3.17;1.30;;;5.00;99.90;;;;;;7362458;32;20100;-59
2022/05/29 03:29:00;;;;;;;3.45;1.65;;;4.90;99.90;;;;;;7349822;32;20119;-61
2022/05/29 03:33:07;;;;;;;3.80;1.67;;;5.00;99.90;;;;;;7356582;32;20121;-61
2022/05/29 03:37:09;;;;;;;3.12;1.50;;;5.10;99.90;;;;;;7353791;32;20125;-60
2022/05/29 03:41:21;;;;;;;3.53;1.25;;;5.20;99.90;;;;;;7365167;32;20191;-60
2022/05/29 03:45:24;;;;;;;3.67;1.40;;;5.20;99.90;;;;;;7332029;32;20241;-60
2022/05/29 03:49:25;;;;;;;3.55;1.45;;;5.20;99.90;;;;;;7360663;32;20121;-60
2022/05/29 03:53:27;;;;;;;5.45;1.70;;;5.30;99.90;;;;;;7352278;32;20770;-60
2022/05/29 03:57:29;;;;;;;3.53;2.03;;;5.40;99.90;;;;;;7365956;32;20131;-60
2022/05/29 04:01:32;;;;;;;3.22;1.70;;;5.50;99.90;;;;;;7366559;32;20131;-60
2022/05/29 04:05:33;;;;;;;3.72;1.30;;;5.60;99.90;;;;;;7371443;32;20119;-61
2022/05/29 04:13:56;;;;;;;6.05;1.62;;;5.80;99.90;;;;;;7364213;32;20103;-60
2022/05/29 04:17:57;;;;;;;4.12;1.65;;;6.00;99.90;;;;;;7357044;32;20107;-61
2022/05/29 04:22:00;;;;;;;4.95;1.62;;;6.00;99.90;;;;;;7362389;32;20310;-61
2022/05/29 04:26:02;;;;;;;3.70;1.83;;;6.20;99.90;;;;;;7349767;32;20172;-62
2022/05/29 04:30:05;;;;;;;7.75;1.83;;;6.40;99.90;;;;;;7375133;32;20115;-62
2022/05/29 04:34:07;;;;;;;4.57;2.15;;;6.50;99.90;;;;;;7345870;32;20238;-62
2022/05/29 04:38:10;;;;;;;3.97;1.90;;;6.70;99.90;;;;;;7353417;32;20099;-61
2022/05/29 04:42:12;;;;;;;5.65;1.90;;;6.70;99.90;;;;;;7347309;32;20131;-61
2022/05/29 04:46:13;;;;;;;4.43;1.67;;;6.80;99.90;;;;;;7371850;32;20107;-61
2022/05/29 04:50:15;;;;;;;3.20;1.75;;;6.90;99.90;;;;;;7364841;32;20626;-62
2022/05/29 04:54:17;;;;;;;6.97;2.00;;;7.00;99.90;;;;;;7355781;32;20221;-62
2022/05/29 04:58:18;;;;;;;5.22;2.50;;;7.10;99.90;;;;;;7358650;32;20125;-61
2022/05/29 05:02:20;;;;;;;7.87;2.33;;;7.20;99.90;;;;;;7353651;32;20126;-61
2022/05/29 05:06:22;;;;;;;4.18;2.42;;;7.20;99.90;;;;;;7349578;32;20111;-63
2022/05/29 05:10:24;;;;;;;9.98;2.95;;;7.10;99.90;;;;;;7364531;32;20546;-60
2022/05/29 05:14:28;;;;;;;7.47;2.60;;;7.20;99.90;;;;;;7356655;32;20482;-61
2022/05/29 05:18:30;;;;;;;5.05;2.65;;;7.40;99.90;;;;;;7363207;32;20228;-61
2022/05/29 05:22:32;;;;;;;11.30;5.87;;;7.60;99.90;;;;;;7355773;32;20099;-63
2022/05/29 05:26:35;;;;;;;11.57;6.00;;;7.80;99.90;;;;;;7368220;32;20121;-66
2022/05/29 05:30:36;;;;;;;14.05;6.05;;;8.10;99.90;;;;;;7365329;32;20508;-65
2022/05/29 05:34:40;;;;;;;9.23;5.20;;;8.30;99.90;;;;;;7359079;32;20107;-64
2022/05/29 05:38:42;;;;;;;15.20;6.00;;;8.40;99.90;;;;;;7370018;32;20103;-66
2022/05/29 05:42:44;;;;;;;10.38;5.20;;;8.50;99.90;;;;;;7359662;32;20095;-65
2022/05/29 05:46:48;;;;;;;9.50;5.97;;;8.60;99.90;;;;;;7362031;32;20122;-64
2022/05/29 05:50:54;;;;;;;13.68;5.78;;;8.70;99.90;;;;;;7359039;32;20229;-64
2022/05/29 05:54:55;;;;;;;13.20;5.70;;;8.70;99.90;;;;;;7349340;32;20110;-64
2022/05/29 05:58:57;;;;;;;10.55;5.25;;;8.70;99.90;;;;;;7354281;32;20197;-64
2022/05/29 06:02:59;;;;;;;14.70;5.70;;;8.70;99.90;;;;;;7356846;32;20313;-64
2022/05/29 06:07:01;;;;;;;8.93;5.35;;;8.70;99.90;;;;;;7360730;32;20125;-65
2022/05/29 06:11:03;;;;;;;12.05;5.45;;;8.90;99.90;;;;;;7358118;32;20121;-64
2022/05/29 06:15:07;;;;;;;10.18;5.57;;;8.80;99.90;;;;;;7360227;32;20522;-65
2022/05/29 06:19:09;;;;;;;12.20;5.40;;;8.90;99.90;;;;;;7344406;32;20531;-62
2022/05/29 06:23:12;;;;;;;10.82;5.10;;;9.00;99.90;;;;;;7364443;32;20198;-63
2022/05/29 06:27:13;;;;;;;10.15;5.40;;;9.10;99.90;;;;;;7367320;32;20103;-62
2022/05/29 06:31:15;;;;;;;12.45;5.87;;;9.10;99.90;;;;;;7347079;32;20136;-63
2022/05/29 06:35:18;;;;;;;12.00;5.22;;;9.20;99.90;;;;;;7360609;32;20732;-64
2022/05/29 06:39:22;;;;;;;10.93;5.20;;;9.40;99.90;;;;;;7345924;32;20206;-63
2022/05/29 06:43:23;;;;;;;13.23;5.97;;;9.40;99.90;;;;;;7356737;32;20501;-65
2022/05/29 06:47:25;;;;;;;10.25;5.18;;;9.60;99.90;;;;;;7351718;32;20243;-64
2022/05/29 06:51:27;;;;;;;12.95;6.07;;;9.70;99.90;;;;;;7337117;32;20178;-64
2022/05/29 06:55:29;;;;;;;14.05;5.15;;;9.80;99.90;;;;;;7326809;32;20237;-65
2022/05/29 06:59:31;;;;;;;12.30;6.12;;;9.90;99.90;;;;;;7328817;32;20167;-63
2022/05/29 07:07:58;;;;;;;13.77;9.23;;;10.00;99.90;;;;;;7341318;32;20185;-63
2022/05/29 07:12:22;;;;;;;12.90;9.65;;;10.20;99.90;;;;;;7349276;32;20509;-64
2022/05/29 07:16:24;;;;;;;17.12;11.60;;;10.30;99.90;;;;;;7341310;32;20637;-63
2022/05/29 07:20:26;;;;;;;19.12;12.93;;;10.30;99.90;;;;;;7324680;32;20177;-63
2022/05/29 07:24:30;;;;;;;16.95;10.93;;;10.30;99.90;;;;;;7324875;32;20261;-64
2022/05/29 07:28:32;;;;;;;15.88;10.73;;;10.30;99.90;;;;;;7346703;32;21234;-64
2022/05/29 07:32:34;;;;;;;14.63;9.73;;;10.40;99.90;;;;;;7341458;32;20095;-62
2022/05/29 07:36:35;;;;;;;24.42;15.00;;;10.30;99.90;;;;;;7350428;32;20126;-62
2022/05/29 07:40:37;;;;;;;23.15;16.17;;;10.40;99.90;;;;;;7353397;32;20246;-64
2022/05/29 07:44:39;;;;;;;26.20;20.20;;;10.60;99.90;;;;;;7350383;32;20098;-63
2022/05/29 07:48:41;;;;;;;24.95;18.65;;;10.80;99.90;;;;;;7356243;32;20131;-63
2022/05/29 07:52:44;;;;;;;29.73;20.08;;;10.90;99.90;;;;;;7333945;32;20118;-64
2022/05/29 07:56:46;;;;;;;27.60;18.83;;;11.30;99.90;;;;;;7344001;32;20130;-63
2022/05/29 08:00:49;;;;;;;21.73;17.05;;;11.50;99.90;;;;;;7347446;32;20193;-63
2022/05/29 08:04:50;;;;;;;20.75;18.15;;;11.50;99.90;;;;;;7344520;32;20298;-63
2022/05/29 08:08:52;;;;;;;26.20;17.67;;;11.40;99.90;;;;;;7349485;32;20213;-65
2022/05/29 08:12:54;;;;;;;23.98;17.02;;;11.40;99.90;;;;;;7349053;32;20206;-64
2022/05/29 08:16:56;;;;;;;30.30;18.77;;;11.40;99.90;;;;;;7341224;32;22183;-64
2022/05/29 08:20:57;;;;;;;20.48;15.77;;;11.00;99.90;;;;;;7343917;32;20261;-64
2022/05/29 08:33:41;;;;;;;24.67;16.73;;;11.10;99.90;;;;;;7346119;32;20200;-64
2022/05/29 08:37:42;;;;;;;17.73;15.13;;;11.10;99.90;;;;;;7346783;32;20532;-66
2022/05/29 08:41:48;;;;;;;16.65;10.82;;;12.00;99.90;;;;;;7350309;32;20253;-65
2022/05/29 08:45:51;;;;;;;16.35;9.07;;;13.40;99.90;;;;;;7354371;32;20126;-65
2022/05/29 08:49:54;;;;;;;13.18;7.65;;;13.90;99.90;;;;;;7358972;32;20117;-63
2022/05/29 08:54:20;;;;;;;12.55;6.40;;;15.00;99.90;;;;;;7345421;32;20840;-64
2022/05/29 08:58:57;;;;;;;11.02;5.47;;;15.70;99.90;;;;;;7342935;32;20241;-58
2022/05/29 09:03:35;;;;;;;12.20;8.18;;;14.70;99.90;;;;;;7337510;32;20229;-61
2022/05/29 09:07:40;;;;;;;14.20;7.03;;;14.00;99.90;;;;;;7302257;32;20186;-63
2022/05/29 09:11:55;;;;;;;12.70;7.37;;;13.30;99.90;;;;;;7341998;32;20662;-61
2022/05/29 09:16:04;;;;;;;11.07;5.60;;;12.70;99.90;;;;;;7346169;32;20216;-62
2022/05/29 09:20:23;;;;;;;11.10;4.72;;;12.50;99.90;;;;;;7362723;32;20516;-63
2022/05/29 09:24:58;;;;;;;7.07;2.72;;;12.40;99.90;;;;;;7355257;32;20115;-63
2022/05/29 09:29:00;;;;;;;5.18;2.20;;;12.50;99.90;;;;;;7352766;32;20852;-63
2022/05/29 09:33:11;;;;;;;9.13;2.78;;;12.70;99.90;;;;;;7340164;32;20106;-63
2022/05/29 09:37:26;;;;;;;11.35;2.90;;;13.80;99.90;;;;;;7346689;32;20189;-62
2022/05/29 09:41:52;;;;;;;7.80;2.67;;;14.70;99.90;;;;;;7337717;32;20229;-62
2022/05/29 09:45:53;;;;;;;4.97;2.40;;;14.30;99.90;;;;;;7327260;32;20313;-63
2022/05/29 09:50:09;;;;;;;7.28;2.65;;;13.80;99.90;;;;;;7349137;32;20111;-62
2022/05/29 09:54:26;;;;;;;5.82;2.25;;;13.40;99.90;;;;;;7351499;32;20178;-63
2022/05/29 09:58:47;;;;;;;7.68;3.22;;;14.00;99.90;;;;;;7356580;32;20672;-62
2022/05/29 10:02:49;;;;;;;5.60;2.80;;;13.90;99.90;;;;;;7346754;32;20181;-63
2022/05/29 10:06:56;;;;;;;7.03;1.95;;;13.70;99.90;;;;;;7349654;32;20206;-62
2022/05/29 10:11:17;;;;;;;8.05;3.67;;;13.10;99.90;;;;;;7344553;32;20266;-62
2022/05/29 10:15:25;;;;;;;7.65;3.35;;;12.50;99.90;;;;;;7350088;32;20186;-63
2022/05/29 10:19:40;;;;;;;10.00;3.53;;;12.10;99.90;;;;;;7354926;32;20094;-64
2022/05/29 10:23:52;;;;;;;5.53;1.60;;;11.70;99.90;;;;;;7355132;32;20103;-63
2022/05/29 10:27:58;;;;;;;6.25;1.67;;;11.40;99.90;;;;;;7347051;32;20107;-62
2022/05/29 10:32:04;;;;;;;2.92;1.08;;;11.00;99.90;;;;;;7343663;32;20229;-63
2022/05/29 10:36:18;;;;;;;2.37;1.00;;;10.90;99.90;;;;;;7341015;32;20434;-62
2022/05/29 10:40:23;;;;;;;3.95;1.23;;;10.80;99.90;;;;;;7355121;32;20103;-61
2022/05/29 10:44:43;;;;;;;1.80;0.77;;;11.00;99.90;;;;;;7348211;32;20111;-62
2022/05/29 10:48:58;;;;;;;1.80;0.82;;;11.20;99.90;;;;;;7359471;32;20131;-63
2022/05/29 10:53:12;;;;;;;3.22;0.70;;;11.70;99.90;;;;;;7362128;32;20137;-63
2022/05/29 10:57:29;;;;;;;2.17;0.80;;;12.20;99.90;;;;;;7362564;32;20099;-62
2022/05/29 11:06:33;;;;;;;3.03;0.60;;;13.60;99.90;;;;;;7331108;32;20240;-63
2022/05/29 11:11:10;;;;;;;0.82;0.47;;;13.90;99.90;;;;;;7361562;32;20757;-62
2022/05/29 11:15:26;;;;;;;1.67;0.50;;;14.20;99.90;;;;;;7352365;32;20118;-63
2022/05/29 11:20:01;;;;;;;2.33;0.45;;;14.40;99.90;;;;;;7366949;32;20223;-62
2022/05/29 11:24:17;;;;;;;1.92;0.93;;;15.20;99.90;;;;;;7360789;32;20509;-63
2022/05/29 11:28:25;;;;;;;3.22;1.80;;;15.10;99.90;;;;;;7361212;32;20839;-64
2022/05/29 11:32:50;;;;;;;5.28;2.30;;;15.40;99.90;;;;;;7359468;32;20121;-64
2022/05/29 11:37:25;;;;;;;6.45;2.50;;;15.70;99.90;;;;;;7358452;32;20129;-64
2022/05/29 11:41:33;;;;;;;8.00;3.70;;;15.60;99.90;;;;;;7365082;32;20099;-64
2022/05/29 11:54:49;;;;;;;7.90;1.60;;;14.60;99.90;;;;;;7365064;32;20010;-66
2022/05/29 11:58:59;;;;;;;4.40;1.67;;;14.30;99.90;;;;;;7350174;32;20178;-66
2022/05/29 12:03:14;;;;;;;4.00;1.70;;;13.90;99.90;;;;;;7359174;32;22437;-67
2022/05/29 12:07:23;;;;;;;3.08;1.10;;;14.00;99.90;;;;;;7357342;32;20175;-65
2022/05/29 12:11:45;;;;;;;7.10;2.00;;;14.60;99.90;;;;;;7342819;32;20099;-67
2022/05/29 12:15:56;;;;;;;5.53;1.40;;;15.30;99.90;;;;;;7362039;32;20107;-64
2022/05/29 12:20:04;;;;;;;4.78;1.35;;;15.50;99.90;;;;;;7362737;32;20605;-66
2022/05/29 12:24:10;;;;;;;5.25;1.87;;;15.30;99.90;;;;;;7361494;32;20175;-64
2022/05/29 12:28:27;;;;;;;3.17;1.10;;;15.30;99.90;;;;;;7365487;32;20103;-62
2022/05/29 12:32:32;;;;;;;4.80;1.53;;;15.10;99.90;;;;;;7368286;32;20194;-63
2022/05/29 12:36:45;;;;;;;;;;;15.20;99.90;;;;;;7367010;32;20236;-64
2022/05/29 12:41:08;;;;;;;3.15;1.00;;;15.30;99.90;;;;;;7356600;32;20445;-63
2022/05/29 12:45:37;;;;;;;3.00;0.80;;;15.30;99.90;;;;;;7358636;32;20223;-64
2022/05/29 12:50:01;;;;;;;6.62;0.90;;;15.10;99.90;;;;;;7360339;32;20242;-65
2022/05/29 12:54:25;;;;;;;3.97;1.33;;;15.20;99.90;;;;;;7348488;32;20225;-65
2022/05/29 12:58:50;;;;;;;4.85;1.33;;;15.60;99.90;;;;;;7363152;32;20154;-62
2022/05/29 13:03:13;;;;;;;7.97;3.67;;;15.00;99.90;;;;;;7373226;32;20209;-61
2022/05/29 13:07:21;;;;;;;5.03;1.40;;;14.40;99.90;;;;;;7356839;32;20100;-62
2022/05/29 13:11:33;;;;;;;2.87;1.37;;;14.10;99.90;;;;;;7354881;32;20685;-63
2022/05/29 13:15:37;;;;;;;2.30;1.58;;;14.10;99.90;;;;;;7345352;32;20096;-63
2022/05/29 13:19:59;;;;;;;4.45;1.17;;;14.00;99.90;;;;;;7353321;32;20190;-63
2022/05/29 13:24:01;;;;;;;4.50;1.00;;;14.10;99.90;;;;;;7361415;32;20099;-58
2022/05/29 13:28:27;;;;;;;2.15;0.82;;;14.00;99.90;;;;;;7353776;32;20467;-61
2022/05/29 13:32:31;;;;;;;3.15;0.82;;;13.70;99.90;;;;;;7363305;32;20218;-60
2022/05/29 13:36:39;;;;;;;2.70;0.70;;;13.30;99.90;;;;;;7360531;32;20278;-61
2022/05/29 13:40:45;;;;;;;4.03;0.77;;;12.80;99.90;;;;;;7357296;32;20150;-60
2022/05/29 13:44:47;;;;;;;4.22;1.02;;;12.70;99.90;;;;;;7357379;32;20166;-62
2022/05/29 13:49:22;;;;;;;3.25;0.98;;;12.60;99.90;;;;;;7361723;32;20107;-60
2022/05/29 13:53:55;;;;;;;2.83;0.77;;;12.50;99.90;;;;;;7354893;32;20110;-61
2022/05/29 14:07:12;;;;;;;5.25;1.00;;;12.80;99.90;;;;;;7341849;32;20118;-60
2022/05/29 14:11:15;;;;;;;2.67;0.95;;;13.30;99.90;;;;;;7363009;32;20136;-62
2022/05/29 14:15:31;;;;;;;4.95;0.80;;;13.70;99.90;;;;;;7361499;32;20107;-61
2022/05/29 14:19:52;;;;;;;4.53;1.10;;;14.30;99.90;;;;;;7358548;32;20118;-61
2022/05/29 14:24:06;;;;;;;3.00;1.23;;;14.70;99.90;;;;;;7354356;32;20103;-57
2022/05/29 14:28:27;;;;;;;2.50;0.73;;;14.90;99.90;;;;;;7361135;32;20420;-57
2022/05/29 14:32:43;;;;;;;5.35;0.85;;;14.80;99.90;;;;;;7364355;32;20538;-58
2022/05/29 14:37:14;;;;;;;8.52;0.82;;;14.80;99.90;;;;;;7370581;32;20103;-64
2022/05/29 14:41:38;;;;;;;4.62;1.10;;;14.70;99.90;;;;;;7354077;32;20263;-66
2022/05/29 14:45:47;;;;;;;5.03;1.15;;;14.60;99.90;;;;;;7372294;32;20127;-66
2022/05/29 14:50:09;;;;;;;12.52;5.47;;;14.70;99.90;;;;;;7348960;32;20214;-67
2022/05/29 14:54:30;;;;;;;6.35;1.30;;;14.80;99.90;;;;;;7349972;32;20125;-67
2022/05/29 14:58:33;;;;;;;3.97;0.70;;;14.50;99.90;;;;;;7362366;32;20499;-71
2022/05/29 15:02:37;;;;;;;3.03;0.62;;;14.20;99.90;;;;;;7364609;32;20106;-66
2022/05/29 15:11:11;;;;;;;4.75;0.73;;;13.80;99.90;;;;;;7356974;32;20107;-66
2022/05/29 15:15:21;;;;;;;3.87;0.70;;;13.60;99.90;;;;;;7362533;32;20214;-66
2022/05/29 15:24:14;;;;;;;1.98;0.55;;;13.10;99.90;;;;;;7361909;32;20175;-67
2022/05/29 15:28:16;;;;;;;4.57;0.60;;;13.10;99.90;;;;;;7357204;32;20253;-66
2022/05/29 15:32:29;;;;;;;2.65;0.50;;;13.00;99.90;;;;;;7328990;32;20125;-69
2022/05/29 15:37:02;;;;;;;1.87;0.62;;;13.00;99.90;;;;;;7352883;32;20254;-66
2022/05/29 15:41:18;;;;;;;0.95;0.40;;;13.00;99.90;;;;;;7369792;32;20234;-66
2022/05/29 15:45:33;;;;;;;3.10;0.60;;;13.20;99.90;;;;;;7364029;32;20237;-66
2022/05/29 15:50:03;;;;;;;6.80;0.90;;;13.60;99.90;;;;;;7364122;32;20675;-66
2022/05/29 15:54:48;;;;;;;5.00;0.85;;;13.80;99.90;;;;;;7366037;32;20330;-66
2022/05/29 15:58:57;;;;;;;3.25;1.10;;;13.60;99.90;;;;;;7362889;32;20178;-66
2022/05/29 16:03:03;;;;;;;5.65;1.48;;;13.60;99.90;;;;;;7364718;32;20194;-63
2022/05/29 16:07:07;;;;;;;4.72;1.10;;;13.70;99.90;;;;;;7363483;32;20237;-65
2022/05/29 16:11:29;;;;;;;4.40;1.33;;;13.50;99.90;;;;;;7359219;32;20226;-68
2022/05/29 16:15:40;;;;;;;4.32;1.50;;;13.40;99.90;;;;;;7360981;32;20194;-64
2022/05/29 16:19:56;;;;;;;4.05;1.10;;;13.30;99.90;;;;;;7341932;32;20099;-68
2022/05/29 16:24:05;;;;;;;2.40;0.80;;;13.20;99.90;;;;;;7348560;32;20245;-64
2022/05/29 16:28:25;;;;;;;5.00;1.17;;;13.10;99.90;;;;;;7368331;32;20110;-66
2022/05/29 16:32:46;;;;;;;2.65;0.82;;;12.90;99.90;;;;;;7361323;32;20146;-66
2022/05/29 16:50:19;;;;;;;3.58;0.65;;;13.00;99.90;;;;;;7362954;32;20249;-66
2022/05/29 16:54:36;;;;;;;2.17;0.65;;;13.00;99.90;;;;;;7362897;32;20095;-63
2022/05/29 16:58:45;;;;;;;4.50;1.05;;;12.90;99.90;;;;;;7355352;32;20159;-64
2022/05/29 17:03:16;;;;;;;3.75;0.80;;;12.90;99.90;;;;;;7349521;32;20126;-63
2022/05/29 17:07:21;;;;;;;1.65;0.73;;;12.90;99.90;;;;;;7356849;32;20221;-63
2022/05/29 17:11:24;;;;;;;3.45;0.90;;;12.90;99.90;;;;;;7368806;32;20213;-64
2022/05/29 17:15:32;;;;;;;3.50;0.62;;;13.00;99.90;;;;;;7354685;32;20284;-63
2022/05/29 17:19:35;;;;;;;3.08;0.50;;;13.00;99.90;;;;;;7365038;32;20720;-63
2022/05/29 17:23:53;;;;;;;4.78;0.77;;;13.20;99.90;;;;;;7351178;32;20203;-64
2022/05/29 17:28:00;;;;;;;4.32;0.70;;;13.10;99.90;;;;;;7362650;32;20107;-67
2022/05/29 17:32:06;;;;;;;;;;;13.10;99.90;;;;;;7356279;32;20103;-64
2022/05/29 17:36:15;;;;;;;5.57;0.90;;;13.20;99.90;;;;;;7354421;32;20022;-68
2022/05/29 17:40:23;;;;;;;3.10;0.62;;;13.10;99.90;;;;;;7357843;32;20117;-66
2022/05/29 17:44:25;;;;;;;;;;;13.10;99.90;;;;;;7363965;32;20298;-66
2022/05/29 17:49:03;;;;;;;3.80;1.02;;;13.10;99.90;;;;;;7357106;32;20049;-59
2022/05/29 17:53:19;;;;;;;3.67;1.00;;;13.00;99.90;;;;;;7361994;32;20435;-63
2022/05/29 17:57:27;;;;;;;2.45;0.93;;;13.00;99.90;;;;;;7362776;32;20143;-65
2022/05/29 18:01:29;;;;;;;2.55;0.93;;;12.90;99.90;;;;;;7360447;32;20733;-67
2022/05/29 18:05:31;;;;;;;3.35;1.37;;;13.00;99.90;;;;;;7359815;32;20414;-70
2022/05/29 18:09:33;;;;;;;3.60;0.70;;;13.00;99.90;;;;;;7357419;32;20251;-66
2022/05/29 18:13:36;;;;;;;3.35;0.70;;;13.00;99.90;;;;;;7346624;32;20182;-66
2022/05/29 18:17:37;;;;;;;1.87;0.50;;;12.90;99.90;;;;;;7356991;32;20110;-67
2022/05/29 18:21:39;;;;;;;1.90;0.47;;;12.90;99.90;;;;;;7365807;32;20758;-65
2022/05/29 18:25:41;;;;;;;5.30;0.95;;;12.80;99.90;;;;;;7362917;32;20133;-65
2022/05/29 18:29:43;;;;;;;2.10;0.70;;;12.80;99.90;;;;;;7366277;32;20129;-65
2022/05/29 18:33:45;;;;;;;4.00;0.60;;;12.70;99.90;;;;;;7349996;32;20116;-68
2022/05/29 18:37:48;;;;;;;5.30;0.77;;;12.60;99.90;;;;;;7366048;32;20111;-66
2022/05/29 18:41:50;;;;;;;3.10;0.65;;;12.60;99.90;;;;;;7360944;32;20256;-61
2022/05/29 18:45:52;;;;;;;1.45;0.40;;;12.50;99.90;;;;;;7359031;32;20220;-64
2022/05/29 18:49:54;;;;;;;2.50;0.73;;;12.40;99.90;;;;;;7356737;32;20653;-67
2022/05/29 18:53:56;;;;;;;3.30;0.65;;;12.30;99.90;;;;;;7358043;32;20137;-69
2022/05/29 18:57:57;;;;;;;2.10;0.60;;;12.20;99.90;;;;;;7359863;32;20103;-66
2022/05/29 19:02:00;;;;;;;2.83;0.80;;;12.10;99.90;;;;;;7332857;32;20268;-66
2022/05/29 19:06:13;;;;;;;3.47;1.05;;;12.00;99.90;;;;;;7367686;32;20125;-67
2022/05/29 19:10:16;;;;;;;5.03;0.80;;;11.90;99.90;;;;;;7364140;32;20139;-67
2022/05/29 19:14:18;;;;;;;2.62;0.75;;;12.00;99.90;;;;;;7363715;32;20129;-69
2022/05/29 19:18:19;;;;;;;4.28;0.60;;;11.90;99.90;;;;;;7361033;32;20474;-65
2022/05/29 19:22:21;;;;;;;1.73;0.55;;;11.90;99.90;;;;;;7366934;32;20801;-65
2022/05/29 19:26:26;;;;;;;2.50;0.68;;;11.80;99.90;;;;;;7361524;32;20111;-67
2022/05/29 19:30:30;;;;;;;4.20;0.60;;;11.60;99.90;;;;;;7370331;32;20122;-66
2022/05/29 19:34:32;;;;;;;2.67;0.73;;;11.40;99.90;;;;;;7362961;32;20686;-64
2022/05/29 19:38:34;;;;;;;2.40;0.80;;;11.40;99.90;;;;;;7363787;32;20217;-64
2022/05/29 19:42:37;;;;;;;3.60;0.90;;;11.40;99.90;;;;;;7366058;32;20114;-65
2022/05/29 19:46:39;;;;;;;7.68;0.85;;;11.20;99.90;;;;;;7369333;32;20434;-65
2022/05/29 19:50:40;;;;;;;5.87;1.15;;;11.10;99.90;;;;;;7360155;32;20538;-64
2022/05/29 19:54:43;;;;;;;4.03;0.70;;;11.10;99.90;;;;;;7360087;32;20121;-63
2022/05/29 19:58:46;;;;;;;2.87;0.80;;;10.90;99.90;;;;;;7355603;32;20119;-64
2022/05/29 20:02:48;;;;;;;7.35;3.33;;;10.80;99.90;;;;;;7366322;32;20119;-65
2022/05/29 20:06:50;;;;;;;1.73;0.68;;;10.80;99.90;;;;;;7367625;32;20255;-64
2022/05/29 20:10:52;;;;;;;2.70;0.70;;;10.70;99.90;;;;;;7374518;32;20099;-63
2022/05/29 20:14:53;;;;;;;3.08;0.98;;;10.70;99.90;;;;;;7373203;32;20145;-64
2022/05/29 20:18:57;;;;;;;2.75;0.77;;;10.70;99.90;;;;;;7368973;32;20107;-63
2022/05/29 20:22:59;;;;;;;4.15;0.70;;;10.70;99.90;;;;;;7366577;32;20117;-61
2022/05/29 20:27:01;;;;;;;3.20;0.80;;;10.70;99.90;;;;;;7353875;32;20206;-62
2022/05/29 20:31:04;;;;;;;4.40;1.05;;;10.60;99.90;;;;;;7359530;32;20177;-62
2022/05/29 20:35:06;;;;;;;4.85;1.00;;;10.60;99.90;;;;;;7345020;32;20120;-63
2022/05/29 20:39:09;;;;;;;2.08;0.98;;;10.70;99.90;;;;;;7344472;32;20220;-65
2022/05/29 20:43:12;;;;;;;13.98;1.02;;;10.60;99.90;;;;;;7370729;32;20157;-63
2022/05/29 20:47:23;;;;;;;4.65;1.17;;;10.60;99.90;;;;;;7365214;32;20592;-62
2022/05/29 20:51:26;;;;;;;4.53;1.48;;;10.50;99.90;;;;;;7346323;32;20142;-63
2022/05/29 20:55:29;;;;;;;7.03;1.20;;;10.50;99.90;;;;;;7348609;32;20213;-64
2022/05/29 20:59:32;;;;;;;6.97;1.30;;;10.50;99.90;;;;;;7350042;32;20470;-63
2022/05/29 21:03:35;;;;;;;7.97;1.05;;;10.40;99.90;;;;;;7355076;32;20095;-63
2022/05/29 21:07:37;;;;;;;5.10;0.90;;;10.40;99.90;;;;;;7361010;32;20143;-63
2022/05/29 21:11:39;;;;;;;4.30;0.90;;;10.40;99.90;;;;;;7353659;32;20493;-63
2022/05/29 21:15:40;;;;;;;4.05;1.00;;;10.40;99.90;;;;;;7365549;32;20198;-63
2022/05/29 21:19:42;;;;;;;4.97;1.12;;;10.30;99.90;;;;;;7353682;32;20130;-63
2022/05/29 21:23:44;;;;;;;6.87;1.05;;;10.30;99.90;;;;;;7357903;32;20107;-61
2022/05/29 21:27:46;;;;;;;4.12;1.10;;;10.30;99.90;;;;;;7364868;32;20125;-62
2022/05/29 21:31:48;;;;;;;4.78;1.00;;;10.30;99.90;;;;;;7350373;32;20117;-60
2022/05/29 21:35:50;;;;;;;6.90;1.02;;;10.30;99.90;;;;;;7347607;32;20909;-61
2022/05/29 21:39:55;;;;;;;4.82;1.20;;;10.30;99.90;;;;;;7371769;32;20110;-60
2022/05/29 21:43:58;;;;;;;6.03;1.15;;;10.30;99.90;;;;;;7337484;32;20137;-60
2022/05/29 21:48:00;;;;;;;3.72;1.20;;;10.30;99.90;;;;;;7346986;32;20130;-59
2022/05/29 21:52:03;;;;;;;3.30;1.20;;;10.20;99.90;;;;;;7362704;32;20643;-60
2022/05/29 21:56:09;;;;;;;5.53;1.20;;;10.20;99.90;;;;;;7351540;32;20134;-60
2022/05/29 22:00:19;;;;;;;7.90;1.30;;;10.20;99.90;;;;;;7363785;32;20262;-59
2022/05/29 22:04:20;;;;;;;4.45;1.25;;;10.20;99.90;;;;;;7345098;32;20232;-59
2022/05/29 22:08:22;;;;;;;4.70;1.27;;;10.10;99.90;;;;;;7368416;32;20121;-61
2022/05/29 22:12:25;;;;;;;5.12;1.05;;;10.20;99.90;;;;;;7364954;32;20096;-61
2022/05/29 22:16:30;;;;;;;4.93;1.40;;;10.10;99.90;;;;;;7369103;32;20210;-60
2022/05/29 22:20:32;;;;;;;5.07;1.30;;;10.10;99.90;;;;;;7362144;32;20237;-60
2022/05/29 22:24:34;;;;;;;4.82;1.62;;;10.10;99.90;;;;;;7365504;32;20122;-60
2022/05/29 22:28:36;;;;;;;6.50;1.20;;;10.00;99.90;;;;;;7362430;32;20121;-60
2022/05/29 22:32:57;;;;;;;7.82;1.48;;;10.00;99.90;;;;;;7363325;32;20098;-60
2022/05/29 22:37:04;;;;;;;5.35;1.17;;;10.00;99.90;;;;;;7364590;32;20561;-60
2022/05/29 22:41:08;;;;;;;3.28;0.90;;;10.00;99.90;;;;;;7358175;32;20214;-61